createdAt,value
2017-12-15T00:01:55.681Z,79.10
2017-12-15T00:04:23.968Z,78.50
2017-12-15T00:06:52.417Z,77.70
2017-12-15T00:09:19.933Z,77.70
2017-12-15T00:11:47.451Z,79.10
2017-12-15T00:14:14.998Z,79.00
2017-12-15T00:16:42.523Z,78.30
2017-12-15T00:19:10.076Z,79.50
2017-12-15T00:21:37.604Z,78.30
2017-12-15T00:24:05.894Z,78.10
2017-12-15T00:26:33.468Z,78.00
2017-12-15T00:29:00.989Z,76.70
2017-12-15T00:31:31.283Z,77.70
2017-12-15T00:33:59.580Z,77.70
2017-12-15T00:36:27.112Z,77.00
2017-12-15T00:38:54.669Z,77.60
2017-12-15T00:41:22.199Z,78.10
2017-12-15T00:43:49.758Z,77.50
2017-12-15T00:46:17.283Z,76.70
2017-12-15T00:48:45.594Z,76.70
2017-12-15T00:51:13.207Z,76.70
2017-12-15T00:53:41.061Z,75.40
2017-12-15T00:56:08.576Z,75.60
2017-12-15T00:58:36.119Z,74.90
2017-12-15T01:01:03.818Z,75.10
2017-12-15T01:03:31.344Z,74.90
2017-12-15T01:05:58.872Z,75.80
2017-12-15T01:08:28.387Z,75.70
2017-12-15T01:10:55.968Z,75.50
2017-12-15T01:13:23.506Z,75.30
2017-12-15T01:15:51.082Z,76.00
2017-12-15T01:18:18.659Z,74.60
2017-12-15T01:20:46.183Z,74.70
2017-12-15T01:23:14.531Z,73.00
2017-12-15T01:25:42.062Z,73.00
2017-12-15T01:28:09.839Z,74.00
2017-12-15T01:30:38.459Z,72.60
2017-12-15T01:33:06.738Z,73.80
2017-12-15T01:35:35.061Z,71.70
2017-12-15T01:38:02.585Z,71.70
2017-12-15T01:40:31.831Z,72.10
2017-12-15T01:42:59.375Z,72.00
2017-12-15T01:45:28.256Z,72.40
2017-12-15T01:47:55.871Z,72.30
2017-12-15T01:50:24.179Z,74.00
2017-12-15T01:52:51.711Z,74.00
2017-12-15T01:55:19.268Z,73.40
2017-12-15T01:57:46.793Z,74.00
2017-12-15T02:00:14.348Z,72.80
2017-12-15T02:02:42.823Z,72.30
2017-12-15T02:05:10.352Z,72.60
2017-12-15T02:07:37.916Z,72.70
2017-12-15T02:10:06.187Z,71.60
2017-12-15T02:12:33.751Z,71.30
2017-12-15T02:15:01.294Z,71.70
2017-12-15T02:17:28.837Z,72.10
2017-12-15T02:19:57.175Z,71.30
2017-12-15T02:22:24.724Z,71.30
2017-12-15T02:24:52.298Z,71.30
2017-12-15T02:27:19.854Z,71.40
2017-12-15T02:29:47.402Z,71.50
2017-12-15T02:32:14.991Z,71.40
2017-12-15T02:34:43.310Z,70.70
2017-12-15T02:37:10.894Z,70.70
2017-12-15T02:39:38.454Z,70.40
2017-12-15T02:42:06.012Z,69.40
2017-12-15T02:44:33.594Z,68.40
2017-12-15T02:47:01.138Z,68.50
2017-12-15T02:49:28.691Z,68.00
2017-12-15T02:51:56.266Z,68.30
2017-12-15T02:54:23.810Z,68.00
2017-12-15T02:56:51.346Z,68.60
2017-12-15T02:59:18.942Z,68.30
2017-12-15T03:01:46.509Z,68.80
2017-12-15T03:04:14.096Z,68.80
2017-12-15T03:06:41.645Z,68.90
2017-12-15T03:09:09.198Z,67.90
2017-12-15T03:11:37.545Z,67.30
2017-12-15T03:14:05.070Z,67.30
2017-12-15T03:16:32.621Z,67.80
2017-12-15T03:19:00.147Z,67.30
2017-12-15T03:21:27.871Z,67.20
2017-12-15T03:23:57.400Z,66.20
2017-12-15T03:26:25.838Z,66.50
2017-12-15T03:28:53.409Z,64.50
2017-12-15T03:31:20.962Z,65.40
2017-12-15T03:33:48.494Z,63.80
2017-12-15T03:36:18.740Z,65.00
2017-12-15T03:38:46.270Z,64.80
2017-12-15T03:41:14.596Z,66.70
2017-12-15T03:43:42.115Z,66.70
2017-12-15T03:46:09.640Z,66.80
2017-12-15T03:48:37.193Z,66.10
2017-12-15T03:51:04.721Z,66.20
2017-12-15T03:53:32.244Z,65.30
2017-12-15T03:56:00.588Z,65.90
2017-12-15T03:58:28.130Z,65.80
2017-12-15T04:00:55.687Z,65.90
2017-12-15T04:03:23.222Z,66.10
2017-12-15T04:05:50.770Z,66.80
2017-12-15T04:08:19.067Z,66.10
2017-12-15T04:10:46.618Z,66.10
2017-12-15T04:13:14.134Z,65.90
2017-12-15T04:15:41.689Z,65.70
2017-12-15T04:18:09.233Z,66.80
2017-12-15T04:20:36.757Z,67.70
2017-12-15T04:23:05.270Z,68.00
2017-12-15T04:25:32.796Z,68.20
2017-12-15T04:28:00.344Z,67.30
2017-12-15T04:30:27.885Z,65.90
2017-12-15T04:32:55.445Z,66.60
2017-12-15T04:35:22.967Z,67.40
2017-12-15T04:37:50.520Z,68.00
2017-12-15T04:40:18.049Z,66.70
2017-12-15T04:42:45.612Z,65.90
2017-12-15T04:45:13.148Z,65.70
2017-12-15T04:47:40.679Z,64.40
2017-12-15T04:50:08.241Z,64.80
2017-12-15T04:52:35.759Z,65.10
2017-12-15T04:55:03.321Z,65.30
2017-12-15T04:57:30.852Z,64.90
2017-12-15T04:59:58.409Z,66.00
2017-12-15T05:02:25.931Z,65.90
2017-12-15T05:04:53.487Z,65.40
2017-12-15T05:07:21.003Z,66.00
2017-12-15T05:09:49.493Z,65.10
2017-12-15T05:12:17.039Z,65.40
2017-12-15T05:14:45.540Z,65.20
2017-12-15T05:17:13.102Z,65.70
2017-12-15T05:19:40.611Z,65.60
2017-12-15T05:22:08.926Z,65.90
2017-12-15T05:24:36.469Z,65.90
2017-12-15T05:27:06.020Z,65.20
2017-12-15T05:29:34.323Z,64.00
2017-12-15T05:32:02.895Z,64.00
2017-12-15T05:34:30.419Z,63.80
2017-12-15T05:36:57.952Z,62.70
2017-12-15T05:39:25.504Z,63.30
2017-12-15T05:41:53.037Z,63.10
2017-12-15T05:44:21.706Z,62.80
2017-12-15T05:46:49.420Z,63.60
2017-12-15T05:49:19.401Z,61.60
2017-12-15T05:51:47.533Z,61.80
2017-12-15T05:54:15.092Z,59.50
2017-12-15T05:56:42.624Z,60.10
2017-12-15T05:59:10.154Z,61.60
2017-12-15T06:01:37.711Z,66.30
2017-12-15T06:04:05.241Z,70.20
2017-12-15T06:06:32.767Z,73.40
2017-12-15T06:09:00.317Z,73.60
2017-12-15T06:11:27.842Z,71.90
2017-12-15T06:13:55.369Z,71.60
2017-12-15T06:16:22.915Z,71.40
2017-12-15T06:18:50.440Z,71.10
2017-12-15T06:21:17.987Z,69.10
2017-12-15T06:23:45.543Z,68.70
2017-12-15T06:26:13.077Z,68.10
2017-12-15T06:28:41.389Z,69.30
2017-12-15T06:31:08.926Z,69.40
2017-12-15T06:33:36.472Z,68.20
2017-12-15T06:36:04.757Z,66.90
2017-12-15T06:38:32.275Z,66.90
2017-12-15T06:40:59.827Z,67.50
2017-12-15T06:43:27.358Z,66.50
2017-12-15T06:45:54.907Z,66.30
2017-12-15T06:48:23.206Z,62.90
2017-12-15T06:50:50.735Z,62.90
2017-12-15T06:53:19.056Z,62.10
2017-12-15T06:55:46.587Z,62.10
2017-12-15T06:58:14.141Z,62.60
2017-12-15T07:00:41.671Z,62.40
2017-12-15T07:03:09.223Z,63.70
2017-12-15T07:05:37.539Z,64.30
2017-12-15T07:08:05.060Z,64.30
2017-12-15T07:10:32.595Z,63.60
2017-12-15T07:13:00.140Z,62.10
2017-12-15T07:15:27.668Z,62.30
2017-12-15T07:17:55.210Z,62.30
2017-12-15T07:20:22.732Z,61.10
2017-12-15T07:22:52.219Z,61.00
2017-12-15T07:25:19.743Z,60.30
2017-12-15T07:27:48.024Z,59.80
2017-12-15T07:30:15.755Z,59.80
2017-12-15T07:32:43.299Z,59.60
2017-12-15T07:35:10.835Z,59.80
2017-12-15T07:37:38.388Z,59.60
2017-12-15T07:40:06.446Z,60.00
2017-12-15T07:42:33.992Z,59.50
2017-12-15T07:45:01.516Z,58.30
2017-12-15T07:47:29.048Z,58.40
2017-12-15T07:49:56.613Z,59.40
2017-12-15T07:52:24.132Z,58.50
2017-12-15T07:54:51.690Z,59.90
2017-12-15T07:57:19.248Z,61.20
2017-12-15T07:59:46.774Z,60.80
2017-12-15T08:02:14.327Z,62.10
2017-12-15T08:04:42.620Z,63.60
2017-12-15T08:07:12.141Z,64.30
2017-12-15T08:09:39.706Z,64.20
2017-12-15T08:12:07.389Z,65.80
2017-12-15T08:14:34.915Z,65.80
2017-12-15T08:17:03.242Z,65.10
2017-12-15T08:19:30.790Z,65.10
2017-12-15T08:21:58.361Z,64.60
2017-12-15T08:24:25.883Z,64.30
2017-12-15T08:26:53.407Z,65.20
2017-12-15T08:29:22.911Z,62.90
2017-12-15T08:31:50.439Z,60.40
2017-12-15T08:34:17.971Z,61.80
2017-12-15T08:36:45.524Z,60.60
2017-12-15T08:39:13.043Z,60.10
2017-12-15T08:41:41.551Z,59.70
2017-12-15T08:44:09.859Z,57.40
2017-12-15T08:46:37.382Z,57.40
2017-12-15T08:49:04.927Z,57.70
2017-12-15T08:51:32.452Z,57.70
2017-12-15T08:53:59.979Z,57.50
2017-12-15T08:56:28.348Z,57.10
2017-12-15T08:58:55.873Z,57.00
2017-12-15T09:01:24.214Z,57.70
2017-12-15T09:03:57.455Z,57.70
2017-12-15T09:06:25.015Z,58.00
2017-12-15T09:08:53.489Z,57.90
2017-12-15T09:11:21.023Z,58.40
2017-12-15T09:13:48.593Z,58.40
2017-12-15T09:16:16.111Z,57.20
2017-12-15T09:18:43.698Z,57.50
2017-12-15T09:21:11.236Z,57.50
2017-12-15T09:23:39.754Z,57.70
2017-12-15T09:26:08.269Z,57.60
2017-12-15T09:28:36.784Z,58.50
2017-12-15T09:31:04.347Z,57.70
2017-12-15T09:33:31.871Z,59.10
2017-12-15T09:35:59.393Z,59.40
2017-12-15T09:38:28.892Z,59.00
2017-12-15T09:40:56.436Z,57.80
2017-12-15T09:43:23.986Z,57.80
2017-12-15T09:45:51.504Z,57.90
2017-12-15T09:48:19.051Z,57.50
2017-12-15T09:50:46.579Z,57.60
2017-12-15T09:53:14.111Z,57.00
2017-12-15T09:55:43.706Z,58.00
2017-12-15T09:58:11.217Z,56.40
2017-12-15T10:00:39.784Z,56.00
2017-12-15T10:03:07.309Z,56.00
2017-12-15T10:05:34.851Z,56.10
2017-12-15T10:08:02.430Z,55.40
2017-12-15T10:10:29.983Z,56.70
2017-12-15T10:12:57.795Z,55.90
2017-12-15T10:15:25.323Z,56.80
2017-12-15T10:17:52.873Z,56.30
2017-12-15T10:20:20.405Z,57.80
2017-12-15T10:22:47.927Z,57.70
2017-12-15T10:25:15.478Z,57.50
2017-12-15T10:27:43.785Z,58.70
2017-12-15T10:30:12.106Z,58.20
2017-12-15T10:32:39.635Z,58.20
2017-12-15T10:35:07.159Z,56.90
2017-12-15T10:37:34.719Z,55.50
2017-12-15T10:40:02.240Z,55.90
2017-12-15T10:42:29.795Z,54.80
2017-12-15T10:44:57.446Z,54.70
2017-12-15T10:47:24.991Z,55.70
2017-12-15T10:49:52.507Z,56.50
2017-12-15T10:52:20.059Z,55.00
2017-12-15T10:54:49.318Z,54.00
2017-12-15T10:57:16.853Z,54.00
2017-12-15T10:59:45.167Z,53.70
2017-12-15T11:02:15.288Z,53.70
2017-12-15T11:04:44.825Z,53.40
2017-12-15T11:07:12.395Z,54.60
2017-12-15T11:09:40.680Z,51.40
2017-12-15T11:12:09.205Z,51.20
2017-12-15T11:14:36.768Z,51.20
2017-12-15T11:17:05.275Z,51.10
2017-12-15T11:19:33.563Z,52.70
2017-12-15T11:22:01.111Z,52.10
2017-12-15T11:24:28.623Z,52.80
2017-12-15T11:26:56.177Z,52.50
2017-12-15T11:29:23.703Z,53.30
2017-12-15T11:31:51.283Z,54.10
2017-12-15T11:34:18.803Z,52.70
2017-12-15T11:36:46.352Z,53.40
2017-12-15T11:39:13.868Z,52.40
2017-12-15T11:41:42.379Z,52.40
2017-12-15T11:44:09.932Z,52.90
2017-12-15T11:46:37.450Z,51.10
2017-12-15T11:49:05.001Z,51.70
2017-12-15T11:51:33.309Z,52.90
2017-12-15T11:54:02.818Z,52.90
2017-12-15T11:56:30.356Z,52.50
2017-12-15T11:58:57.912Z,52.50
2017-12-15T12:01:27.167Z,53.50
2017-12-15T12:03:54.718Z,53.50
2017-12-15T12:06:22.234Z,53.70
2017-12-15T12:08:49.758Z,53.30
2017-12-15T12:11:17.316Z,53.00
2017-12-15T12:13:45.805Z,53.20
2017-12-15T12:16:13.375Z,53.30
2017-12-15T12:18:41.699Z,53.80
2017-12-15T12:21:09.243Z,53.70
2017-12-15T12:23:37.738Z,51.90
2017-12-15T12:26:05.263Z,52.50
2017-12-15T12:28:33.575Z,51.80
2017-12-15T12:31:01.105Z,51.80
2017-12-15T12:33:28.654Z,52.20
2017-12-15T12:35:56.939Z,52.00
2017-12-15T12:38:24.482Z,52.00
2017-12-15T12:40:52.042Z,52.70
2017-12-15T12:43:20.336Z,51.90
2017-12-15T12:45:47.892Z,51.80
2017-12-15T12:48:15.418Z,53.20
2017-12-15T12:50:42.942Z,52.30
2017-12-15T12:53:10.493Z,52.30
2017-12-15T12:55:38.020Z,52.30
2017-12-15T12:58:06.340Z,50.80
2017-12-15T13:00:33.875Z,50.70
2017-12-15T13:03:01.480Z,51.30
2017-12-15T13:05:29.800Z,50.80
2017-12-15T13:08:03.531Z,50.80
2017-12-15T13:10:31.183Z,50.40
2017-12-15T13:12:58.714Z,49.60
2017-12-15T13:15:26.277Z,49.50
2017-12-15T13:17:53.803Z,49.30
2017-12-15T13:20:22.091Z,49.80
2017-12-15T13:22:49.634Z,49.80
2017-12-15T13:25:17.159Z,51.60
2017-12-15T13:27:44.782Z,51.70
2017-12-15T13:30:12.311Z,52.30
2017-12-15T13:32:39.830Z,52.60
2017-12-15T13:35:07.377Z,53.00
2017-12-15T13:37:34.896Z,52.20
2017-12-15T13:40:02.489Z,52.50
2017-12-15T13:42:30.015Z,51.10
2017-12-15T13:44:57.564Z,48.90
2017-12-15T13:47:25.090Z,49.60
2017-12-15T13:49:52.635Z,50.60
2017-12-15T13:52:20.188Z,51.30
2017-12-15T13:54:47.703Z,52.40
2017-12-15T13:57:15.259Z,52.80
2017-12-15T13:59:43.551Z,53.90
2017-12-15T14:02:11.083Z,53.90
2017-12-15T14:04:38.647Z,54.30
2017-12-15T14:07:07.131Z,53.80
2017-12-15T14:09:34.684Z,54.30
2017-12-15T14:12:02.216Z,54.60
2017-12-15T14:14:29.748Z,54.10
2017-12-15T14:16:57.321Z,54.30
2017-12-15T14:19:24.843Z,55.10
2017-12-15T14:21:54.184Z,54.50
2017-12-15T14:24:21.715Z,54.40
2017-12-15T14:26:50.031Z,54.70
2017-12-15T14:29:17.575Z,54.70
2017-12-15T14:31:45.355Z,55.30
2017-12-15T14:34:12.924Z,55.40
2017-12-15T14:36:40.444Z,56.60
2017-12-15T14:39:08.016Z,56.60
2017-12-15T14:41:35.580Z,56.70
2017-12-15T14:44:03.131Z,58.00
2017-12-15T14:46:30.672Z,57.70
2017-12-15T14:48:58.212Z,57.40
2017-12-15T14:51:25.775Z,57.60
2017-12-15T14:53:54.075Z,57.50
2017-12-15T14:56:21.654Z,57.60
2017-12-15T14:58:50.195Z,57.50
2017-12-15T15:01:17.735Z,57.10
2017-12-15T15:03:45.296Z,57.20
2017-12-15T15:06:12.828Z,57.60
2017-12-15T15:08:40.367Z,57.90
2017-12-15T15:11:07.895Z,57.60
2017-12-15T15:13:36.196Z,57.30
2017-12-15T15:16:03.760Z,57.20
2017-12-15T15:18:31.291Z,57.60
2017-12-15T15:20:58.854Z,58.30
2017-12-15T15:23:26.386Z,57.90
2017-12-15T15:25:55.075Z,57.70
2017-12-15T15:28:25.367Z,59.00
2017-12-15T15:30:53.856Z,58.90
2017-12-15T15:33:23.371Z,59.50
2017-12-15T15:35:50.888Z,59.30
2017-12-15T15:38:18.444Z,59.20
2017-12-15T15:40:46.987Z,59.30
2017-12-15T15:43:14.665Z,59.50
2017-12-15T15:45:42.233Z,59.40
2017-12-15T15:48:10.743Z,59.30
2017-12-15T15:50:38.282Z,60.20
2017-12-15T15:53:05.831Z,59.90
2017-12-15T15:55:33.361Z,60.00
2017-12-15T15:58:01.701Z,61.40
2017-12-15T16:00:29.266Z,60.70
2017-12-15T16:02:56.820Z,59.70
2017-12-15T16:05:24.356Z,60.20
2017-12-15T16:07:51.894Z,59.30
2017-12-15T16:10:19.486Z,59.20
2017-12-15T16:12:47.020Z,59.00
2017-12-15T16:15:14.584Z,59.00
2017-12-15T16:17:42.113Z,58.70
2017-12-15T16:20:09.679Z,58.90
2017-12-15T16:22:38.177Z,59.00
2017-12-15T16:25:06.632Z,59.20
2017-12-15T16:27:34.188Z,59.10
2017-12-15T16:30:03.149Z,59.40
2017-12-15T16:32:30.699Z,58.90
2017-12-15T16:34:58.226Z,58.90
2017-12-15T16:37:25.798Z,58.60
2017-12-15T16:39:54.278Z,58.80
2017-12-15T16:42:21.810Z,59.00
2017-12-15T16:44:50.135Z,60.00
2017-12-15T16:47:17.662Z,60.00
2017-12-15T16:49:45.231Z,60.00
2017-12-15T16:52:12.766Z,60.50
2017-12-15T16:54:40.343Z,61.20
2017-12-15T16:57:07.892Z,61.30
2017-12-15T16:59:35.447Z,61.30
2017-12-15T17:02:03.009Z,61.40
2017-12-15T17:04:31.532Z,61.20
2017-12-15T17:06:59.276Z,61.40
2017-12-15T17:09:26.803Z,61.70
2017-12-15T17:11:54.344Z,61.50
2017-12-15T17:14:21.927Z,61.70
2017-12-15T17:16:50.235Z,61.90
2017-12-15T17:19:17.787Z,61.90
2017-12-15T17:21:45.351Z,62.00
2017-12-15T17:24:13.829Z,62.20
2017-12-15T17:26:42.377Z,62.40
2017-12-15T17:29:10.676Z,62.40
2017-12-15T17:31:38.230Z,62.30
2017-12-15T17:34:05.764Z,62.00
2017-12-15T17:36:33.295Z,62.20
2017-12-15T17:39:00.899Z,62.00
2017-12-15T17:41:28.419Z,61.40
2017-12-15T17:43:57.932Z,61.70
2017-12-15T17:46:25.499Z,61.50
2017-12-15T17:48:53.800Z,62.20
2017-12-15T17:51:21.384Z,61.70
2017-12-15T17:53:48.904Z,60.90
2017-12-15T17:56:16.471Z,60.70
2017-12-15T17:58:44.772Z,61.70
2017-12-15T18:01:12.326Z,61.60
2017-12-15T18:03:39.918Z,61.30
2017-12-15T18:06:07.458Z,60.90
2017-12-15T18:08:35.039Z,60.60
2017-12-15T18:11:02.568Z,61.00
2017-12-15T18:13:31.736Z,60.80
2017-12-15T18:16:00.332Z,60.40
2017-12-15T18:18:27.888Z,60.40
2017-12-15T18:20:55.421Z,60.30
2017-12-15T18:23:23.717Z,60.80
2017-12-15T18:25:51.305Z,60.50
2017-12-15T18:28:18.823Z,60.90
2017-12-15T18:30:47.143Z,63.00
2017-12-15T18:33:14.664Z,62.90
2017-12-15T18:35:42.289Z,63.30
2017-12-15T18:38:09.790Z,63.00
2017-12-15T18:40:37.331Z,64.40
2017-12-15T18:43:05.655Z,63.50
2017-12-15T18:45:33.224Z,63.40
2017-12-15T18:48:00.810Z,63.40
2017-12-15T18:50:28.328Z,63.20
2017-12-15T18:52:55.849Z,62.50
2017-12-15T18:55:24.167Z,62.60
2017-12-15T18:57:52.651Z,62.60
2017-12-15T19:00:20.206Z,63.90
2017-12-15T19:02:47.838Z,64.60
2017-12-15T19:05:16.175Z,63.40
2017-12-15T19:07:43.738Z,63.30
2017-12-15T19:10:12.086Z,59.80
2017-12-15T19:12:39.644Z,59.90
2017-12-15T19:15:07.177Z,60.00
2017-12-15T19:17:34.711Z,59.50
2017-12-15T19:20:02.279Z,59.10
2017-12-15T19:22:30.581Z,60.10
2017-12-15T19:24:58.139Z,60.10
2017-12-15T19:27:25.666Z,60.50
2017-12-15T19:29:54.940Z,59.60
2017-12-15T19:32:22.507Z,59.60
2017-12-15T19:34:50.031Z,59.50
2017-12-15T19:37:17.592Z,58.50
2017-12-15T19:39:45.117Z,58.70
2017-12-15T19:42:12.648Z,58.30
2017-12-15T19:44:42.161Z,59.10
2017-12-15T19:47:09.680Z,58.70
2017-12-15T19:49:39.184Z,59.10
2017-12-15T19:52:06.703Z,59.10
2017-12-15T19:54:34.231Z,59.10
2017-12-15T19:57:01.794Z,59.10
2017-12-15T19:59:29.317Z,58.50
2017-12-15T20:01:56.869Z,59.20
2017-12-15T20:04:24.396Z,59.70
2017-12-15T20:06:51.931Z,58.80
2017-12-15T20:09:19.483Z,58.30
2017-12-15T20:11:47.794Z,58.10
2017-12-15T20:14:16.497Z,58.10
2017-12-15T20:16:44.044Z,58.80
2017-12-15T20:19:12.536Z,58.30
2017-12-15T20:21:40.096Z,58.20
2017-12-15T20:24:07.643Z,58.90
2017-12-15T20:26:35.228Z,59.80
2017-12-15T20:29:02.764Z,61.20
2017-12-15T20:31:31.241Z,62.00
2017-12-15T20:33:58.814Z,62.00
2017-12-15T20:36:26.349Z,62.00
2017-12-15T20:38:53.899Z,64.20
2017-12-15T20:41:21.443Z,63.80
2017-12-15T20:43:48.967Z,64.50
2017-12-15T20:46:18.474Z,62.70
2017-12-15T20:48:45.999Z,65.90
2017-12-15T20:51:14.332Z,67.30
2017-12-15T20:53:41.866Z,66.90
2017-12-15T20:56:09.391Z,66.20
2017-12-15T20:58:38.900Z,67.20
2017-12-15T21:01:06.432Z,68.60
2017-12-15T21:03:34.732Z,68.90
2017-12-15T21:06:02.279Z,68.90
2017-12-15T21:08:29.826Z,69.40
2017-12-15T21:10:58.314Z,69.80
2017-12-15T21:13:25.876Z,68.50
2017-12-15T21:15:54.164Z,70.20
2017-12-15T21:18:22.671Z,70.20
2017-12-15T21:20:50.201Z,70.40
2017-12-15T21:23:17.760Z,70.50
2017-12-15T21:25:45.297Z,71.20
2017-12-15T21:28:12.828Z,70.90
2017-12-15T21:30:40.378Z,71.10
2017-12-15T21:33:07.907Z,70.20
2017-12-15T21:35:35.467Z,71.40
2017-12-15T21:38:02.995Z,71.90
2017-12-15T21:40:31.287Z,72.00
2017-12-15T21:42:58.863Z,72.00
2017-12-15T21:45:26.407Z,72.00
2017-12-15T21:47:53.979Z,72.80
2017-12-15T21:50:22.512Z,72.60
2017-12-15T21:52:50.056Z,73.50
2017-12-15T21:55:18.572Z,72.90
2017-12-15T21:57:46.098Z,73.40
2017-12-15T22:00:14.608Z,73.40
2017-12-15T22:02:42.144Z,72.90
2017-12-15T22:05:09.680Z,72.60
2017-12-15T22:07:37.243Z,73.30
2017-12-15T22:10:04.760Z,72.80
2017-12-15T22:12:32.315Z,73.90
2017-12-15T22:14:59.844Z,75.00
2017-12-15T22:17:27.376Z,74.20
2017-12-15T22:19:54.960Z,74.40
2017-12-15T22:22:23.476Z,73.60
2017-12-15T22:24:51.045Z,73.40
2017-12-15T22:27:18.562Z,73.90
2017-12-15T22:29:46.116Z,73.90
2017-12-15T22:32:13.692Z,74.30
2017-12-15T22:34:41.989Z,75.10
2017-12-15T22:37:09.515Z,75.00
2017-12-15T22:39:37.063Z,74.90
2017-12-15T22:42:05.586Z,74.60
2017-12-15T22:44:33.149Z,74.60
2017-12-15T22:47:02.643Z,75.40
2017-12-15T22:49:30.181Z,75.60
2017-12-15T22:51:57.747Z,75.10
2017-12-15T22:54:26.046Z,74.60
2017-12-15T22:56:53.576Z,74.60
2017-12-15T22:59:21.137Z,75.50
2017-12-15T23:01:48.666Z,75.60
2017-12-15T23:04:16.211Z,75.90
2017-12-15T23:06:43.751Z,74.90
2017-12-15T23:09:11.267Z,75.20
2017-12-15T23:11:38.819Z,75.00
2017-12-15T23:14:07.315Z,75.20
2017-12-15T23:16:34.875Z,74.20
2017-12-15T23:19:04.131Z,75.30
2017-12-15T23:21:31.673Z,75.40
2017-12-15T23:23:59.230Z,75.30
2017-12-15T23:26:26.793Z,74.40
2017-12-15T23:28:54.384Z,76.80
2017-12-15T23:31:21.902Z,76.70
2017-12-15T23:33:49.462Z,76.80
2017-12-15T23:36:17.003Z,76.60
2017-12-15T23:38:44.543Z,76.50
2017-12-15T23:41:12.095Z,76.10
2017-12-15T23:43:39.624Z,76.30
2017-12-15T23:46:07.177Z,76.40
2017-12-15T23:48:34.700Z,76.20
2017-12-15T23:51:02.234Z,76.50
2017-12-15T23:53:29.792Z,76.70
2017-12-15T23:58:57.275Z,76.70
